Time;durP1;ratioP1;P1;durP2;ratioP2;P2;SDS_P1;SDS_P2;PMS_P1;PMS_P2;Temp;Humidity;BMP_temperature;BMP_pressure;BME280_temperature;BME280_humidity;BME280_pressure;Samples;Min_cycle;Max_cycle;Signal;HPM_P1;HPM_P2
2022/03/22 00:00:36;;;;;;;19.97;10.53;;;;;;;6.16;42.11;100886.25;5154363;27;20196;-79
2022/03/22 00:03:04;;;;;;;15.60;10.47;;;;;;;6.19;41.83;100886.28;5154088;27;20297;-79
2022/03/22 00:05:33;;;;;;;17.53;10.67;;;;;;;6.16;42.06;100883.66;5154367;27;20284;-79
2022/03/22 00:08:01;;;;;;;13.87;9.47;;;;;;;6.23;41.70;100884.56;5154293;27;20240;-79
2022/03/22 00:10:28;;;;;;;14.57;9.87;;;;;;;6.22;42.17;100883.72;5153839;27;20361;-80
2022/03/22 00:12:55;;;;;;;20.00;10.07;;;;;;;6.29;41.68;100882.94;5154166;27;20193;-79
2022/03/22 00:15:22;;;;;;;15.47;10.50;;;;;;;6.24;41.67;100863.09;5153761;27;20194;-80
2022/03/22 00:17:49;;;;;;;16.50;10.07;;;;;;;6.26;41.66;100880.34;5154277;27;20223;-80
2022/03/22 00:20:16;;;;;;;14.47;9.87;;;;;;;6.31;41.56;100873.53;5154194;27;20190;-80
2022/03/22 00:22:45;;;;;;;20.73;10.30;;;;;;;6.26;41.26;100870.03;5154137;27;20197;-73
2022/03/22 00:25:15;;;;;;;14.60;9.83;;;;;;;6.18;41.38;100863.94;5153299;27;20224;-73
2022/03/22 00:27:53;;;;;;;16.93;9.80;;;;;;;6.30;41.19;100865.78;5153526;27;20284;-74
2022/03/22 00:30:21;;;;;;;15.10;10.40;;;;;;;6.24;40.88;100855.38;5153283;27;20311;-74
2022/03/22 00:32:53;;;;;;;14.10;9.27;;;;;;;6.19;40.92;100839.88;5152985;27;20276;-74
2022/03/22 00:35:22;;;;;;;13.27;9.60;;;;;;;6.40;40.61;100862.44;5153777;27;20584;-74
2022/03/22 00:37:51;;;;;;;13.67;9.70;;;;;;;6.42;40.63;100858.16;5153269;27;20193;-79
2022/03/22 00:40:18;;;;;;;17.87;9.57;;;;;;;6.38;40.62;100862.41;5153636;27;20189;-80
2022/03/22 00:42:46;;;;;;;13.83;9.60;;;;;;;6.33;40.91;100852.88;5154129;27;20204;-79
2022/03/22 00:45:16;;;;;;;12.77;9.20;;;;;;;6.41;40.41;100854.72;5153356;27;20250;-81
2022/03/22 00:47:44;;;;;;;12.00;9.33;;;;;;;6.34;40.48;100847.75;5154144;27;20650;-80
2022/03/22 00:50:11;;;;;;;13.07;9.30;;;;;;;6.31;41.09;100847.72;5153265;27;20217;-80
2022/03/22 00:52:38;;;;;;;13.17;9.40;;;;;;;6.33;40.78;100843.44;5154567;27;20200;-80
2022/03/22 00:55:08;;;;;;;14.23;9.47;;;;;;;6.36;40.66;100845.19;5153848;27;20193;-79
2022/03/22 00:57:36;;;;;;;15.87;9.80;;;;;;;6.42;40.43;100843.53;5153765;27;20278;-80
2022/03/22 01:00:06;;;;;;;13.67;9.37;;;;;;;6.42;40.22;100846.13;5153508;27;20545;-79
2022/03/22 01:02:35;;;;;;;13.30;9.17;;;;;;;6.42;40.38;100843.53;5153953;27;20540;-79
2022/03/22 01:05:04;;;;;;;12.83;9.00;;;;;;;6.55;39.66;100837.63;5153078;27;20197;-80
2022/03/22 01:07:33;;;;;;;14.43;9.30;;;;;;;6.49;40.06;100831.56;5152965;27;20190;-80
2022/03/22 01:10:01;;;;;;;12.87;9.17;;;;;;;6.46;40.59;100821.19;5152672;27;20710;-80
2022/03/22 01:12:29;;;;;;;14.43;8.60;;;;;;;6.56;40.48;100825.59;5153694;27;20215;-80
2022/03/22 01:14:57;;;;;;;14.53;9.33;;;;;;;6.54;40.09;100794.66;5153107;27;20204;-80
2022/03/22 01:17:24;;;;;;;14.07;8.33;;;;;;;6.56;40.14;100818.72;5153562;27;20201;-80
2022/03/22 01:19:51;;;;;;;12.70;8.50;;;;;;;6.63;39.88;100819.66;5153805;27;20189;-79
2022/03/22 01:22:18;;;;;;;12.87;8.40;;;;;;;6.46;40.03;100814.31;5152400;27;20197;-80
2022/03/22 01:24:45;;;;;;;11.00;8.07;;;;;;;6.50;40.17;100813.50;5153110;27;21176;-80
2022/03/22 01:27:13;;;;;;;11.20;8.40;;;;;;;6.55;39.62;100810.94;5152698;27;20197;-80
2022/03/22 01:29:41;;;;;;;11.60;8.97;;;;;;;6.61;39.89;100799.84;5152796;27;20250;-81
2022/03/22 01:32:09;;;;;;;12.00;8.13;;;;;;;6.70;39.11;100799.91;5152930;27;20607;-74
2022/03/22 01:34:36;;;;;;;11.30;8.37;;;;;;;6.57;39.64;100798.94;5152150;27;20193;-72
2022/03/22 01:37:03;;;;;;;19.00;9.17;;;;;;;6.64;39.47;100793.00;5152229;27;20280;-73
2022/03/22 01:39:30;;;;;;;11.77;8.67;;;;;;;6.69;39.00;100793.88;5152258;27;20196;-73
2022/03/22 01:41:58;;;;;;;10.90;8.20;;;;;;;6.80;38.84;100793.94;5152187;27;20185;-74
2022/03/22 01:44:25;;;;;;;10.97;8.53;;;;;;;6.78;39.01;100788.78;5152273;27;20637;-74
2022/03/22 01:46:58;;;;;;;11.90;9.20;;;;;;;6.82;38.39;100794.84;5151887;27;20311;-74
2022/03/22 01:49:25;;;;;;;14.30;8.20;;;;;;;6.85;38.39;100790.56;5151895;27;20660;-73
2022/03/22 01:51:52;;;;;;;12.73;8.00;;;;;;;6.92;38.71;100791.44;5152379;27;20228;-73
2022/03/22 01:54:19;;;;;;;11.40;8.93;;;;;;;6.65;38.33;100765.47;5152528;27;20197;-73
2022/03/22 01:56:47;;;;;;;13.97;8.37;;;;;;;6.85;38.32;100794.84;5151844;27;20226;-74
2022/03/22 01:59:13;;;;;;;10.73;8.33;;;;;;;6.82;38.44;100761.28;5151873;27;20193;-74
2022/03/22 02:07:14;;;;;;;12.27;8.13;;;;;;;7.02;38.08;100782.91;5151885;27;20189;-80
2022/03/22 02:09:41;;;;;;;9.93;8.50;;;;;;;7.01;37.79;100781.19;5152238;27;20224;-80
2022/03/22 02:12:09;;;;;;;12.00;8.47;;;;;;;6.95;38.40;100773.41;5152246;27;20231;-80
2022/03/22 02:14:36;;;;;;;10.93;8.73;;;;;;;7.06;37.80;100758.84;5152097;27;20193;-80
2022/03/22 02:17:08;;;;;;;12.20;8.90;;;;;;;7.07;38.26;100773.47;5152303;27;20562;-80
2022/03/22 02:19:39;;;;;;;11.27;8.60;;;;;;;7.12;37.75;100770.91;5152205;27;20205;-80
2022/03/22 02:22:09;;;;;;;12.77;9.23;;;;;;;7.12;38.17;100764.03;5152018;27;20195;-79
2022/03/22 02:24:39;;;;;;;15.53;9.33;;;;;;;7.06;38.34;100743.34;5152199;27;20193;-74
2022/03/22 02:27:08;;;;;;;11.20;9.30;;;;;;;7.06;38.32;100763.16;5151637;27;20191;-74
2022/03/22 02:29:35;;;;;;;11.43;8.30;;;;;;;7.05;37.97;100743.34;5151599;27;20230;-74
2022/03/22 02:32:02;;;;;;;12.17;8.83;;;;;;;7.13;38.06;100776.09;5151585;27;20221;-74
2022/03/22 02:34:30;;;;;;;12.30;9.60;;;;;;;7.19;38.39;100770.97;5151643;27;20232;-74
2022/03/22 02:36:57;;;;;;;12.63;9.07;;;;;;;7.15;38.19;100758.88;5151864;27;20211;-79
2022/03/22 02:39:24;;;;;;;14.33;9.67;;;;;;;7.31;38.50;100767.59;5151999;27;20556;-80
2022/03/22 02:41:53;;;;;;;17.67;9.70;;;;;;;7.17;38.38;100744.28;5152068;27;20683;-80
2022/03/22 02:44:20;;;;;;;16.53;9.93;;;;;;;7.20;38.46;100767.53;5152041;27;20186;-80
2022/03/22 02:46:47;;;;;;;12.13;9.53;;;;;;;7.12;38.45;100758.88;5151866;27;20189;-79
2022/03/22 02:49:14;;;;;;;13.50;10.30;;;;;;;7.29;37.95;100762.41;5151897;27;20276;-79
2022/03/22 02:51:42;;;;;;;16.30;9.00;;;;;;;7.25;38.20;100749.47;5151684;27;20221;-79
2022/03/22 02:54:09;;;;;;;18.47;10.20;;;;;;;7.00;37.99;100721.81;5151360;27;20288;-79
2022/03/22 02:56:36;;;;;;;17.50;10.57;;;;;;;7.12;38.70;100738.22;5155898;27;20634;-80
2022/03/22 02:59:04;;;;;;;15.97;9.80;;;;;;;7.17;38.37;100752.03;5155668;27;20216;-80
2022/03/22 03:01:33;;;;;;;18.73;9.87;;;;;;;7.19;38.82;100757.19;5155607;27;20651;-80
2022/03/22 03:04:00;;;;;;;15.33;10.37;;;;;;;7.20;38.92;100741.72;5155609;27;20194;-79
2022/03/22 03:06:29;;;;;;;16.37;10.63;;;;;;;7.23;38.49;100744.28;5155144;27;20680;-79
2022/03/22 03:08:57;;;;;;;14.57;9.37;;;;;;;7.33;38.06;100752.97;5155702;27;20193;-79
2022/03/22 03:11:25;;;;;;;19.83;10.73;;;;;;;7.33;38.50;100757.25;5155449;27;20600;-79
2022/03/22 03:16:39;;;;;;;14.00;9.50;;;;;;;7.31;38.07;100748.63;5155050;27;20200;-79
2022/03/22 03:19:06;;;;;;;15.93;10.83;;;;;;;7.22;38.24;100734.81;5160645;27;20664;-80
2022/03/22 03:21:33;;;;;;;15.27;9.87;;;;;;;7.33;38.33;100741.75;5165817;27;20206;-79
2022/03/22 03:24:00;;;;;;;16.70;9.70;;;;;;;7.32;38.20;100745.19;5164229;27;20196;-80
2022/03/22 03:26:27;;;;;;;16.17;10.30;;;;;;;7.29;37.99;100754.66;5175901;27;20220;-78
2022/03/22 03:28:54;;;;;;;17.80;10.27;;;;;;;7.25;38.26;100749.47;5175834;27;20193;-78
2022/03/22 03:31:21;;;;;;;16.03;10.73;;;;;;;7.27;38.42;100746.03;5175312;27;20269;-79
2022/03/22 03:33:49;;;;;;;17.03;10.60;;;;;;;7.26;38.40;100735.69;5163345;27;20196;-73
2022/03/22 03:36:16;;;;;;;15.73;10.47;;;;;;;7.25;38.28;100732.25;5163757;27;20189;-74
2022/03/22 03:38:43;;;;;;;21.40;10.63;;;;;;;7.23;38.10;100735.69;5175152;27;20193;-74
2022/03/22 03:43:56;;;;;;;16.07;10.47;;;;;;;7.25;38.52;100732.25;5175329;27;20203;-74
2022/03/22 03:49:09;;;;;;;12.87;9.73;;;;;;;7.31;38.99;100730.56;5175432;27;20248;-74
2022/03/22 03:51:38;;;;;;;20.77;10.40;;;;;;;7.24;38.54;100721.91;5175308;27;20596;-75
2022/03/22 03:54:05;;;;;;;14.43;9.83;;;;;;;7.15;38.55;100712.41;5175458;27;20245;-79
2022/03/22 03:56:32;;;;;;;21.00;11.23;;;;;;;7.16;38.68;100724.47;5175678;27;20231;-82
2022/03/22 03:58:59;;;;;;;16.60;10.60;;;;;;;7.16;38.46;100727.06;5175690;27;20202;-78
2022/03/22 04:01:26;;;;;;;13.10;9.70;;;;;;;7.08;39.04;100714.97;5175840;27;20663;-81
2022/03/22 04:03:53;;;;;;;16.57;10.93;;;;;;;7.18;38.86;100738.25;5154496;27;20194;-80
2022/03/22 04:06:21;;;;;;;15.70;10.63;;;;;;;7.06;39.31;100707.22;5155976;27;20288;-81
2022/03/22 04:08:48;;;;;;;21.27;10.17;;;;;;;7.18;39.00;100732.22;5164221;27;20219;-79
2022/03/22 04:11:15;;;;;;;18.03;10.77;;;;;;;7.21;38.82;100732.25;5154704;27;20217;-81
2022/03/22 04:13:42;;;;;;;17.23;10.40;;;;;;;7.22;38.59;100723.66;5153375;27;20194;-79
2022/03/22 04:16:09;;;;;;;15.00;10.50;;;;;;;7.20;38.97;100736.56;5152989;27;20189;-80
2022/03/22 04:18:36;;;;;;;15.97;10.20;;;;;;;7.20;38.68;100725.34;5153265;27;20197;-80
2022/03/22 04:21:04;;;;;;;15.63;10.30;;;;;;;7.28;38.92;100729.69;5146416;27;20236;-80
2022/03/22 04:24:00;;;;;;;17.03;10.57;;;;;;;7.31;38.36;100728.84;5154057;27;20228;-80
2022/03/22 04:26:29;;;;;;;18.00;11.23;;;;;;;7.29;39.04;100726.25;5147733;27;20231;-81
2022/03/22 04:34:24;;;;;;;17.10;10.80;;;;;;;7.36;38.39;100728.84;5149928;27;20244;-82
2022/03/22 04:36:56;;;;;;;16.27;11.10;;;;;;;7.41;38.93;100728.00;5151667;27;20217;-81
2022/03/22 04:39:24;;;;;;;16.80;10.80;;;;;;;7.47;38.44;100728.03;5149159;27;20580;-81
2022/03/22 04:41:52;;;;;;;20.90;11.50;;;;;;;7.49;39.21;100726.31;5151372;27;20208;-72
2022/03/22 04:44:19;;;;;;;18.20;11.73;;;;;;;7.50;38.84;100727.16;5151064;27;20606;-72
2022/03/22 04:46:46;;;;;;;15.13;10.23;;;;;;;7.43;38.74;100728.88;5151377;27;20221;-79
2022/03/22 04:49:13;;;;;;;19.00;11.70;;;;;;;7.37;38.52;100707.31;5151452;27;20323;-78
2022/03/22 04:57:11;;;;;;;17.60;11.43;;;;;;;7.57;38.68;100739.25;5150333;27;20224;-78
2022/03/22 04:59:38;;;;;;;14.37;10.77;;;;;;;7.56;38.57;100725.47;5151273;27;20228;-82
2022/03/22 05:02:05;;;;;;;16.43;11.30;;;;;;;7.50;38.59;100702.19;5152542;27;20304;-82
2022/03/22 05:04:36;;;;;;;17.90;10.97;;;;;;;7.76;38.03;100722.09;5151975;27;20718;-80
2022/03/22 05:07:04;;;;;;;16.70;11.60;;;;;;;7.67;38.12;100711.72;5152540;27;20250;-81
2022/03/22 05:09:33;;;;;;;17.57;11.33;;;;;;;7.69;37.92;100708.25;5157452;27;20280;-80
2022/03/22 05:12:02;;;;;;;17.47;11.07;;;;;;;7.72;38.73;100699.66;5161423;27;20601;-80
2022/03/22 05:14:31;;;;;;;16.90;11.13;;;;;;;7.75;38.29;100704.84;5171305;27;20197;-80
2022/03/22 05:16:58;;;;;;;16.20;11.67;;;;;;;7.83;38.24;100713.47;5160222;27;20637;-81
2022/03/22 05:19:26;;;;;;;14.70;11.13;;;;;;;7.97;38.04;100712.63;5152395;27;20189;-81
2022/03/22 05:21:53;;;;;;;21.57;11.20;;;;;;;7.94;37.92;100699.69;5152072;27;20185;-82
2022/03/22 05:24:20;;;;;;;16.80;11.33;;;;;;;8.06;37.82;100696.25;5152047;27;20185;-79
2022/03/22 05:26:47;;;;;;;32.90;13.97;;;;;;;8.40;37.65;100691.97;5152063;27;20185;-80
2022/03/22 05:29:14;;;;;;;16.07;11.50;;;;;;;9.01;36.67;100692.69;5151934;27;20265;-82
2022/03/22 05:31:42;;;;;;;19.67;11.70;;;;;;;10.49;34.00;100677.00;5149604;27;20235;-83
2022/03/22 05:34:09;;;;;;;19.53;12.80;;;;;;;11.97;32.02;100691.56;5157558;27;20629;-84
2022/03/22 05:36:36;;;;;;;18.23;12.63;;;;;;;12.91;30.89;100691.66;5157012;27;20193;-81
2022/03/22 05:39:03;;;;;;;18.33;12.27;;;;;;;14.01;29.43;100691.88;5152104;27;20189;-81
2022/03/22 05:41:30;;;;;;;21.93;12.63;;;;;;;14.91;28.13;100695.66;5154967;27;20193;-76
2022/03/22 05:43:57;;;;;;;18.53;13.13;;;;;;;15.25;27.73;100675.47;5152659;27;20197;-76
2022/03/22 05:46:24;;;;;;;19.97;12.97;;;;;;;16.05;26.50;100694.84;5152438;27;20284;-76
2022/03/22 05:48:52;;;;;;;16.93;12.80;;;;;;;16.37;26.03;100674.56;5165046;27;20613;-76
2022/03/22 05:51:19;;;;;;;15.43;12.50;;;;;;;16.79;25.61;100673.13;5152064;27;20189;-76
2022/03/22 05:53:47;;;;;;;27.87;13.57;;;;;;;17.41;24.92;100690.91;5152677;27;20691;-77
2022/03/22 05:56:14;;;;;;;19.10;13.60;;;;;;;17.64;24.31;100690.06;5154177;27;20200;-76
2022/03/22 05:58:41;;;;;;;17.40;14.33;;;;;;;17.93;24.08;100688.94;5164096;27;20200;-76
2022/03/22 06:01:08;;;;;;;19.67;13.13;;;;;;;18.24;23.52;100685.88;5152643;27;20193;-77
2022/03/22 06:03:35;;;;;;;15.93;12.63;;;;;;;17.81;24.12;100689.41;5151321;27;20589;-77
2022/03/22 06:06:03;;;;;;;16.33;12.97;;;;;;;18.30;23.66;100688.25;5151864;27;20288;-85
2022/03/22 06:08:30;;;;;;;23.05;13.10;;;;;;;19.33;22.64;100699.50;5152771;27;20196;-84
2022/03/22 06:10:57;;;;;;;22.48;14.70;;;;;;;19.60;22.66;100688.63;5152047;27;20193;-83
2022/03/22 06:13:24;;;;;;;18.15;13.95;;;;;;;19.52;22.28;100695.13;5152475;27;20217;-85
2022/03/22 06:15:52;;;;;;;17.95;12.82;;;;;;;19.74;21.99;100702.00;5152957;27;20207;-86
2022/03/22 06:18:19;;;;;;;17.38;12.77;;;;;;;19.27;22.43;100693.66;5153364;27;20197;-84
2022/03/22 06:20:46;;;;;;;16.38;13.05;;;;;;;19.35;22.31;100699.44;5152427;27;20189;-83
2022/03/22 06:23:15;;;;;;;18.70;13.32;;;;;;;19.69;22.07;100690.81;5153480;27;20281;-82
2022/03/22 06:25:43;;;;;;;18.88;12.95;;;;;;;19.35;22.08;100671.31;5153421;27;20193;-85
2022/03/22 06:28:10;;;;;;;18.98;12.73;;;;;;;19.68;22.10;100671.53;5153911;27;20583;-84
2022/03/22 06:30:38;;;;;;;15.43;12.88;;;;;;;21.02;21.00;100688.47;5156441;27;20612;-86
2022/03/22 06:33:12;;;;;;;19.65;13.25;;;;;;;21.37;20.78;100691.88;5157598;27;20304;-84
2022/03/22 06:35:40;;;;;;;21.40;12.93;;;;;;;22.34;20.38;100667.00;5157241;27;20199;-84
2022/03/22 06:38:08;;;;;;;17.13;13.10;;;;;;;22.30;19.74;100684.84;5157542;27;20655;-85
2022/03/22 06:40:38;;;;;;;15.75;13.25;;;;;;;;;;5157654;27;20189;-84
2022/03/22 06:43:06;;;;;;;20.48;13.13;;;;;;;21.76;20.10;100669.47;5157110;27;20245;-82
2022/03/22 06:45:33;;;;;;;16.50;12.98;;;;;;;22.07;20.22;100666.81;5156836;27;20217;-83
2022/03/22 06:48:01;;;;;;;15.65;12.95;;;;;;;22.59;19.57;100679.59;5155652;27;20700;-81
2022/03/22 06:50:28;;;;;;;17.25;12.32;;;;;;;23.43;19.19;100675.28;5155693;27;20199;-81
2022/03/22 06:52:55;;;;;;;21.02;13.23;;;;;;;22.89;19.17;100664.56;5155336;27;20217;-80
2022/03/22 06:55:23;;;;;;;14.07;12.20;;;;;;;22.35;19.84;100669.53;5155000;27;20199;-80
2022/03/22 06:57:53;;;;;;;16.85;12.63;;;;;;;23.10;19.75;100668.50;5154345;27;20196;-80
2022/03/22 07:00:21;;;;;;;16.27;12.00;;;;;;;23.83;19.00;100673.56;5154362;27;20246;-80
2022/03/22 07:02:49;;;;;;;14.65;11.43;;;;;;;23.35;19.23;100673.13;5152857;27;20668;-80
2022/03/22 07:05:18;;;;;;;13.57;11.60;;;;;;;23.62;18.81;100667.03;5154968;27;20685;-80
2022/03/22 07:07:45;;;;;;;12.68;11.38;;;;;;;24.34;18.57;100666.66;5155639;27;20213;-78
2022/03/22 07:10:14;;;;;;;15.55;12.25;;;;;;;24.89;18.08;100662.84;5155005;27;20261;-78
2022/03/22 07:12:52;;;;;;;16.70;11.80;;;;;;;25.37;17.77;100663.88;5155626;27;20634;-80
2022/03/22 07:15:23;;;;;;;15.07;11.32;;;;;;;26.51;17.10;100667.84;5154966;27;20217;-79
2022/03/22 07:17:52;;;;;;;14.50;12.43;;;;;;;26.25;16.84;100664.47;5160875;27;20600;-80
2022/03/22 07:20:19;;;;;;;13.02;11.18;;;;;;;26.82;16.70;100663.63;5158471;27;20217;-79
2022/03/22 07:22:46;;;;;;;14.73;11.43;;;;;;;27.51;16.09;100669.69;5172954;27;20213;-80
2022/03/22 07:25:13;;;;;;;17.77;11.27;;;;;;;26.62;16.53;100670.53;5156474;27;20700;-82
2022/03/22 07:27:40;;;;;;;14.95;11.93;;;;;;;26.24;16.76;100668.09;5155667;27;20252;-80
2022/03/22 07:30:11;;;;;;;16.73;11.65;;;;;;;25.97;16.83;100634.59;5159993;27;20219;-84
2022/03/22 07:32:38;;;;;;;12.25;10.55;;;;;;;25.76;16.72;100653.97;5134348;27;20736;-81
2022/03/22 07:35:07;;;;;;;17.65;11.80;;;;;;;26.35;16.65;100660.16;5135661;27;20232;-83
2022/03/22 07:37:34;;;;;;;13.35;12.05;;;;;;;27.60;16.32;100658.31;5134172;27;20312;-80
2022/03/22 07:40:02;;;;;;;18.02;12.57;;;;;;;28.14;15.56;100661.72;5138402;27;20210;-83
2022/03/22 07:42:29;;;;;;;13.30;12.00;;;;;;;28.17;15.96;100653.50;5133109;27;20308;-84
2022/03/22 07:44:57;;;;;;;15.02;11.18;;;;;;;29.11;15.37;100646.31;5171482;27;20192;-84
2022/03/22 07:47:25;;;;;;;14.75;11.10;;;;;;;30.32;14.49;100640.56;5166769;27;20284;-82
2022/03/22 07:55:22;;;;;;;15.38;11.52;;;;;;;30.71;14.14;100632.44;5167514;27;20223;-85
2022/03/22 07:57:49;;;;;;;16.80;11.55;;;;;;;29.42;14.92;100628.41;5175245;27;20223;-85
2022/03/22 08:00:17;;;;;;;17.95;12.43;;;;;;;28.97;14.90;100633.31;5170799;27;20223;-80
2022/03/22 08:02:56;;;;;;;16.20;12.70;;;;;;;28.57;14.91;100626.06;5153995;27;20226;-83
2022/03/22 08:05:23;;;;;;;16.85;11.38;;;;;;;26.74;16.49;100611.81;5153017;27;20236;-81
2022/03/22 08:07:51;;;;;;;13.68;11.90;;;;;;;24.33;18.10;100629.59;5154571;27;20306;-81
2022/03/22 08:10:18;;;;;;;15.30;11.30;;;;;;;22.88;20.37;100631.06;5154213;27;20225;-81
2022/03/22 08:12:46;;;;;;;18.33;11.85;;;;;;;21.56;20.77;100631.81;5154490;27;20247;-81
2022/03/22 08:15:13;;;;;;;16.42;11.45;;;;;;;20.47;22.16;100621.94;5155426;27;20217;-81
2022/03/22 08:17:41;;;;;;;16.90;11.52;;;;;;;19.07;23.28;100615.63;5155107;27;20607;-76
2022/03/22 08:20:10;;;;;;;13.45;10.85;;;;;;;18.33;24.30;100619.78;5144171;27;20258;-77
2022/03/22 08:22:51;;;;;;;15.20;11.00;;;;;;;18.25;24.60;100619.25;5132724;27;20708;-78
2022/03/22 08:25:24;;;;;;;11.75;10.52;;;;;;;17.69;25.61;100597.06;5151897;27;20336;-81
2022/03/22 08:27:52;;;;;;;14.90;10.67;;;;;;;17.56;25.90;100595.81;5162622;27;20192;-80
2022/03/22 08:30:21;;;;;;;16.70;10.27;;;;;;;17.54;26.09;100586.28;5171066;27;20195;-85
2022/03/22 08:32:48;;;;;;;13.17;10.40;;;;;;;17.46;26.01;100583.13;5178887;27;20651;-82
2022/03/22 08:35:17;;;;;;;13.33;10.43;;;;;;;17.44;26.38;100583.19;5170913;27;20192;-85
2022/03/22 08:37:44;;;;;;;11.27;9.90;;;;;;;17.36;26.16;100556.41;5158159;27;20249;-85
2022/03/22 08:40:13;;;;;;;12.47;10.33;;;;;;;17.81;25.77;100585.22;5143617;27;20680;-83
2022/03/22 08:42:43;;;;;;;11.77;9.97;;;;;;;17.90;26.35;100581.34;5153180;27;20296;-78
2022/03/22 08:45:11;;;;;;;15.00;10.77;;;;;;;17.92;25.77;100572.50;5153110;27;20665;-79
2022/03/22 08:47:40;;;;;;;12.53;9.60;;;;;;;17.78;26.37;100564.31;5155605;27;20233;-79
2022/03/22 08:50:09;;;;;;;10.97;9.80;;;;;;;17.71;26.45;100562.88;5161093;27;20216;-82
2022/03/22 08:52:37;;;;;;;12.43;9.27;;;;;;;17.70;26.94;100563.81;5171359;27;20221;-79
2022/03/22 08:55:07;;;;;;;13.10;9.60;;;;;;;17.71;27.04;100558.50;5158266;27;20297;-80
2022/03/22 08:57:34;;;;;;;12.97;8.57;;;;;;;17.71;27.10;100544.50;5161490;27;20220;-80
2022/03/22 09:00:01;;;;;;;9.33;8.40;;;;;;;17.30;27.66;100557.50;5161850;27;20220;-80
2022/03/22 09:02:28;;;;;;;14.83;9.00;;;;;;;17.25;27.55;100559.47;5171300;27;20223;-81
2022/03/22 09:07:40;;;;;;;12.00;8.43;;;;;;;17.01;28.31;100539.44;5156710;27;20224;-79
2022/03/22 09:10:08;;;;;;;11.40;8.43;;;;;;;16.69;28.53;100538.91;5152507;27;20321;-80
2022/03/22 09:12:35;;;;;;;16.23;9.47;;;;;;;16.63;28.07;100536.50;5159903;27;20217;-79
2022/03/22 09:15:02;;;;;;;14.83;8.60;;;;;;;16.75;28.09;100532.56;5160783;27;20292;-78
2022/03/22 09:17:29;;;;;;;10.13;8.37;;;;;;;16.54;28.11;100505.34;5154733;27;20219;-78
2022/03/22 09:19:56;;;;;;;10.27;8.57;;;;;;;16.92;27.82;100524.91;5165728;27;20601;-78
2022/03/22 09:22:23;;;;;;;9.90;8.90;;;;;;;17.11;28.08;100518.94;5167110;27;20227;-79
2022/03/22 09:24:52;;;;;;;10.57;8.73;;;;;;;17.17;28.31;100514.28;5155157;27;20601;-75
2022/03/22 09:27:19;;;;;;;13.63;8.03;;;;;;;17.19;28.46;100515.09;5152390;27;20273;-75
2022/03/22 09:29:47;;;;;;;9.53;8.60;;;;;;;16.88;28.87;100485.75;5159007;27;20216;-78
2022/03/22 09:32:14;;;;;;;9.27;8.37;;;;;;;17.03;28.48;100482.53;5157389;27;20221;-78
2022/03/22 09:34:41;;;;;;;10.70;8.07;;;;;;;17.29;28.24;100505.91;5158988;27;20268;-77
2022/03/22 09:37:08;;;;;;;12.70;8.63;;;;;;;17.34;28.59;100514.47;5161306;27;20192;-77
2022/03/22 09:39:35;;;;;;;11.47;8.50;;;;;;;17.38;28.31;100499.47;5167824;27;20277;-79
2022/03/22 09:42:06;;;;;;;9.63;8.60;;;;;;;17.43;28.18;100500.13;5161286;27;20195;-80
2022/03/22 09:44:35;;;;;;;10.43;8.20;;;;;;;17.53;29.00;100493.56;5159130;27;20293;-78
2022/03/22 09:47:03;;;;;;;10.00;7.37;;;;;;;17.50;28.68;100484.94;5160500;27;20224;-78
2022/03/22 09:49:31;;;;;;;8.27;7.43;;;;;;;17.48;28.30;100492.91;5131767;27;20197;-76
2022/03/22 09:51:58;;;;;;;9.83;7.33;;;;;;;17.19;28.74;100485.38;5150705;27;20193;-79
2022/03/22 09:54:26;;;;;;;9.00;8.10;;;;;;;17.11;29.21;100488.31;5158955;27;20482;-83
2022/03/22 09:56:53;;;;;;;8.73;7.87;;;;;;;17.15;28.96;100489.91;5173998;27;20188;-78
2022/03/22 09:59:21;;;;;;;8.53;7.23;;;;;;;17.02;28.93;100480.81;5174018;27;20199;-78
2022/03/22 10:01:49;;;;;;;10.37;6.87;;;;;;;16.98;29.99;100477.44;5164465;27;20664;-80
2022/03/22 10:04:17;;;;;;;7.10;6.23;;;;;;;16.91;29.99;100462.03;5166308;27;20189;-79
2022/03/22 10:06:57;;;;;;;6.83;6.20;;;;;;;17.03;30.35;100469.41;5164014;27;20199;-81
2022/03/22 10:09:32;;;;;;;11.37;6.40;;;;;;;16.94;29.91;100454.88;5169826;27;20200;-78
2022/03/22 10:11:58;;;;;;;8.33;6.43;;;;;;;16.76;30.12;100471.34;5177494;27;20187;-76
2022/03/22 10:14:36;;;;;;;7.30;5.70;;;;;;;16.96;30.53;100466.16;5177432;27;20592;-75
2022/03/22 10:17:14;;;;;;;7.17;5.43;;;;;;;16.99;29.54;100452.06;5168080;27;20581;-76
2022/03/22 10:19:45;;;;;;;5.80;5.23;;;;;;;16.92;30.18;100456.72;5168266;27;20667;-76
2022/03/22 10:22:13;;;;;;;7.90;6.50;;;;;;;17.02;30.21;100450.19;5166573;27;20198;-78
2022/03/22 10:24:47;;;;;;;5.77;5.10;;;;;;;17.18;30.07;100445.16;5171999;27;20188;-78
2022/03/22 10:27:25;;;;;;;6.30;5.70;;;;;;;17.35;30.15;100441.84;5177320;27;20188;-76
2022/03/22 10:29:54;;;;;;;7.63;4.27;;;;;;;17.25;30.50;100438.75;5157873;27;20200;-79
2022/03/22 10:32:32;;;;;;;6.33;5.07;;;;;;;17.10;30.99;100438.53;5157172;27;20588;-79
2022/03/22 10:35:10;;;;;;;5.77;4.50;;;;;;;16.85;30.44;100428.16;5165154;27;20231;-78
2022/03/22 10:37:37;;;;;;;5.37;4.40;;;;;;;16.63;30.65;100415.91;5165561;27;20253;-78
2022/03/22 10:40:20;;;;;;;4.93;4.43;;;;;;;16.81;30.09;100418.72;5171012;27;20687;-78
2022/03/22 10:42:47;;;;;;;6.87;5.00;;;;;;;16.77;30.87;100404.88;5170763;27;20638;-78
2022/03/22 10:45:16;;;;;;;5.63;4.00;;;;;;;17.19;30.64;100425.03;5177310;27;20196;-79
2022/03/22 10:47:43;;;;;;;6.10;5.20;;;;;;;17.31;30.57;100428.00;5177281;27;20228;-79
2022/03/22 10:50:10;;;;;;;8.13;4.90;;;;;;;17.33;31.41;100410.41;5177328;27;20241;-79
2022/03/22 10:52:48;;;;;;;4.47;4.17;;;;;;;17.38;29.62;100407.63;5177127;27;20189;-79
2022/03/22 10:55:19;;;;;;;5.80;4.53;;;;;;;17.40;30.41;100419.72;5177059;27;20660;-79
2022/03/22 10:57:49;;;;;;;10.23;5.53;;;;;;;17.33;29.78;100412.19;5176032;27;20204;-78
2022/03/22 11:00:18;;;;;;;11.47;5.33;;;;;;;16.82;30.01;100402.06;5155931;27;20196;-83
2022/03/22 11:02:50;;;;;;;9.77;6.00;;;;;;;16.76;29.91;100418.91;5163471;27;20189;-79
2022/03/22 11:05:19;;;;;;;8.40;4.97;;;;;;;16.56;28.99;100393.44;5176416;27;20196;-79
2022/03/22 11:07:47;;;;;;;7.17;4.80;;;;;;;16.55;29.24;100399.59;5175644;27;20200;-78
2022/03/22 11:10:16;;;;;;;7.03;4.77;;;;;;;16.59;30.24;100408.22;5157780;27;20224;-79
2022/03/22 11:12:44;;;;;;;8.47;4.70;;;;;;;16.49;29.94;100406.84;5171056;27;20294;-78
2022/03/22 11:15:13;;;;;;;5.77;4.10;;;;;;;16.38;29.81;100406.41;5154148;27;20218;-77
2022/03/22 11:17:44;;;;;;;3.70;3.40;;;;;;;16.32;28.90;100399.63;5155240;27;20725;-78
2022/03/22 11:20:13;;;;;;;13.03;4.43;;;;;;;16.18;29.12;100409.78;5165753;27;20220;-79
2022/03/22 11:22:52;;;;;;;15.23;4.27;;;;;;;16.05;29.44;100413.75;5154691;27;20213;-78
2022/03/22 11:25:20;;;;;;;9.67;4.47;;;;;;;15.76;29.45;100407.84;5154595;27;20262;-78
2022/03/22 11:27:58;;;;;;;9.07;4.30;;;;;;;15.61;29.55;100396.13;5154220;27;20315;-78
2022/03/22 11:30:28;;;;;;;5.40;4.60;;;;;;;15.63;30.38;100371.66;5154799;27;20691;-78
2022/03/22 11:35:50;;;;;;;11.73;5.73;;;;;;;15.64;29.93;100382.09;5164729;27;20223;-77
2022/03/22 11:38:46;;;;;;;13.00;5.07;;;;;;;15.66;29.63;100371.56;5156727;27;20227;-78
2022/03/22 11:44:11;;;;;;;10.10;6.70;;;;;;;15.76;29.10;100372.94;5158661;27;20722;-75
2022/03/22 11:46:40;;;;;;;12.63;5.60;;;;;;;15.36;28.96;100308.06;5165853;27;20216;-77
2022/03/22 11:49:21;;;;;;;13.90;5.77;;;;;;;15.49;29.82;100335.50;5163195;27;20236;-76
2022/03/22 11:51:53;;;;;;;6.37;4.90;;;;;;;15.59;29.54;100369.16;5161444;27;20215;-77
2022/03/22 11:54:21;;;;;;;9.13;6.63;;;;;;;15.35;29.79;100332.53;5165421;27;20223;-77
2022/03/22 11:56:50;;;;;;;6.00;5.37;;;;;;;15.51;30.41;100367.69;5166448;27;20235;-77
2022/03/22 11:59:18;;;;;;;6.70;5.10;;;;;;;15.33;29.90;100345.66;5161325;27;20308;-78
2022/03/22 12:01:59;;;;;;;6.60;5.90;;;;;;;15.42;30.07;100366.25;5153980;27;20209;-77
2022/03/22 12:04:37;;;;;;;7.13;6.13;;;;;;;15.36;30.16;100361.22;5161680;27;20211;-77